createdAt,value
2023-02-24T00:00:31.012Z,70.63
2023-02-24T00:03:12.731Z,70.67
2023-02-24T00:05:42.845Z,70.62
2023-02-24T00:08:10.694Z,70.66
2023-02-24T00:10:38.484Z,70.57
2023-02-24T00:13:06.341Z,70.77
2023-02-24T00:15:34.179Z,70.67
2023-02-24T00:18:07.150Z,70.80
2023-02-24T00:20:35.610Z,70.88
2023-02-24T00:23:03.809Z,70.83
2023-02-24T00:25:31.652Z,70.89
2023-02-24T00:28:01.652Z,71.05
2023-02-24T00:30:31.549Z,71.04
2023-02-24T00:33:01.397Z,71.00
2023-02-24T00:35:32.248Z,71.06
2023-02-24T00:38:00.817Z,71.18
2023-02-24T00:40:30.767Z,71.16
2023-02-24T00:43:00.481Z,71.12
2023-02-24T00:45:30.960Z,71.18
2023-02-24T00:47:58.928Z,71.22
2023-02-24T00:50:26.852Z,71.27
2023-02-24T00:52:54.631Z,71.40
2023-02-24T00:55:23.261Z,71.43
2023-02-24T00:57:51.086Z,71.30
2023-02-24T01:00:23.426Z,71.39
2023-02-24T01:02:51.321Z,71.48
2023-02-24T01:05:20.210Z,71.44
2023-02-24T01:07:48.076Z,71.57
2023-02-24T01:10:18.445Z,71.49
2023-02-24T01:12:54.077Z,71.63
2023-02-24T01:15:22.877Z,71.64
2023-02-24T01:17:50.824Z,71.54
2023-02-24T01:20:19.126Z,71.56
2023-02-24T01:22:50.580Z,71.62
2023-02-24T01:25:20.524Z,71.64
2023-02-24T01:27:49.028Z,71.65
2023-02-24T01:30:18.344Z,71.73
2023-02-24T01:32:47.301Z,71.88
2023-02-24T01:35:15.963Z,71.90
2023-02-24T01:37:45.194Z,72.07
2023-02-24T01:40:18.786Z,72.06
2023-02-24T01:42:47.730Z,72.06
2023-02-24T01:45:22.850Z,72.03
2023-02-24T01:47:52.208Z,72.10
2023-02-24T01:50:25.999Z,72.13
2023-02-24T01:52:58.831Z,72.31
2023-02-24T01:55:32.783Z,72.36
2023-02-24T01:58:07.881Z,72.35
2023-02-24T02:00:39.054Z,72.28
2023-02-24T02:03:12.176Z,72.48
2023-02-24T02:05:42.414Z,72.45
2023-02-24T02:08:11.180Z,72.45
2023-02-24T02:10:41.333Z,72.65
2023-02-24T02:13:09.197Z,72.67
2023-02-24T02:15:47.739Z,72.65
2023-02-24T02:18:36.425Z,72.70
2023-02-24T02:21:32.622Z,72.68
2023-02-24T02:24:09.241Z,72.75
2023-02-24T02:27:02.376Z,72.66
2023-02-24T02:29:53.286Z,72.73
2023-02-24T02:32:31.744Z,72.77
2023-02-24T02:35:18.865Z,72.77
2023-02-24T02:37:57.116Z,72.80
2023-02-24T02:40:39.026Z,72.81
2023-02-24T02:43:25.953Z,72.71
2023-02-24T02:46:14.904Z,72.78
2023-02-24T02:48:57.348Z,72.90
2023-02-24T02:51:32.168Z,72.94
2023-02-24T02:54:33.963Z,72.92
2023-02-24T02:57:12.938Z,72.88
2023-02-24T02:59:49.317Z,72.93
2023-02-24T03:02:28.626Z,72.92
2023-02-24T03:05:02.163Z,73.02
2023-02-24T03:07:37.584Z,72.99
2023-02-24T03:10:17.645Z,72.97
2023-02-24T03:12:50.657Z,73.06
2023-02-24T03:15:24.153Z,72.94
2023-02-24T03:18:12.032Z,73.06
2023-02-24T03:20:47.866Z,72.93
2023-02-24T03:23:25.768Z,73.07
2023-02-24T03:25:58.857Z,73.12
2023-02-24T03:28:37.347Z,73.14
2023-02-24T03:31:18.208Z,73.00
2023-02-24T03:34:00.640Z,73.07
2023-02-24T03:36:29.501Z,73.14
2023-02-24T03:38:58.643Z,73.27
2023-02-24T03:41:31.651Z,73.23
2023-02-24T03:44:01.520Z,73.45
2023-02-24T03:46:31.922Z,73.53
2023-02-24T03:49:17.052Z,73.67
2023-02-24T03:51:59.669Z,73.84
2023-02-24T03:54:48.420Z,73.86
2023-02-24T03:57:27.182Z,73.95
2023-02-24T04:00:26.050Z,74.13
2023-02-24T04:03:09.675Z,74.17
2023-02-24T04:05:47.650Z,74.27
2023-02-24T04:08:17.196Z,74.49
2023-02-24T04:10:57.444Z,74.41
2023-02-24T04:14:09.938Z,74.41
2023-02-24T04:16:54.112Z,74.56
2023-02-24T04:19:27.676Z,74.68
2023-02-24T04:21:57.289Z,74.58
2023-02-24T04:24:30.465Z,74.64
2023-02-24T04:27:01.938Z,74.63
2023-02-24T04:29:35.850Z,74.70
2023-02-24T04:32:08.961Z,74.83
2023-02-24T04:34:40.354Z,74.84
2023-02-24T04:37:09.213Z,74.85
2023-02-24T04:39:38.496Z,74.97
2023-02-24T04:42:10.876Z,74.97
2023-02-24T04:44:38.683Z,75.04
2023-02-24T04:47:07.274Z,75.15
2023-02-24T04:49:35.191Z,75.24
2023-02-24T04:52:03.068Z,75.22
2023-02-24T04:54:31.524Z,75.23
2023-02-24T04:56:59.498Z,75.38
2023-02-24T04:59:27.947Z,75.46
2023-02-24T05:02:00.402Z,75.48
2023-02-24T05:04:30.111Z,75.62
2023-02-24T05:06:57.990Z,75.62
2023-02-24T05:09:30.025Z,75.60
2023-02-24T05:11:58.403Z,75.66
2023-02-24T05:14:26.354Z,75.65
2023-02-24T05:17:00.036Z,75.82
2023-02-24T05:19:47.460Z,75.91
2023-02-24T05:22:17.637Z,75.99
2023-02-24T05:24:48.009Z,76.10
2023-02-24T05:27:17.294Z,76.14
2023-02-24T05:29:45.200Z,76.15
2023-02-24T05:32:13.191Z,76.38
2023-02-24T05:34:42.709Z,76.46
2023-02-24T05:37:10.857Z,76.59
2023-02-24T05:39:38.786Z,76.70
2023-02-24T05:42:07.149Z,76.80
2023-02-24T05:44:35.949Z,76.78
2023-02-24T05:47:05.541Z,76.85
2023-02-24T05:49:35.260Z,76.94
2023-02-24T05:52:08.769Z,77.18
2023-02-24T05:54:39.900Z,77.17
2023-02-24T05:57:21.330Z,77.22
2023-02-24T05:59:50.569Z,77.29
2023-02-24T06:02:27.483Z,77.40
2023-02-24T06:04:56.065Z,77.32
2023-02-24T06:07:28.733Z,77.40
2023-02-24T06:09:58.793Z,77.43
2023-02-24T06:12:31.871Z,77.54
2023-02-24T06:15:00.406Z,77.43
2023-02-24T06:17:28.574Z,77.44
2023-02-24T06:19:56.742Z,77.52
2023-02-24T06:22:26.411Z,77.30
2023-02-24T06:24:55.212Z,77.51
2023-02-24T06:27:24.953Z,77.63
2023-02-24T06:29:54.975Z,77.77
2023-02-24T06:32:25.592Z,77.90
2023-02-24T06:34:54.438Z,78.00
2023-02-24T06:37:25.479Z,78.15
2023-02-24T06:39:53.413Z,78.37
2023-02-24T06:42:21.901Z,78.52
2023-02-24T06:44:50.405Z,78.64
2023-02-24T06:47:18.566Z,78.44
2023-02-24T06:49:47.974Z,78.66
2023-02-24T06:52:19.087Z,78.82
2023-02-24T06:54:49.084Z,78.96
2023-02-24T06:57:17.380Z,79.34
2023-02-24T06:59:46.116Z,79.42
2023-02-24T07:02:14.193Z,79.49
2023-02-24T07:04:44.789Z,79.64
2023-02-24T07:07:14.417Z,79.93
2023-02-24T07:09:42.715Z,79.83
2023-02-24T07:12:12.539Z,80.05
2023-02-24T07:14:40.820Z,80.16
2023-02-24T07:17:08.874Z,80.06
2023-02-24T07:19:36.947Z,80.27
2023-02-24T07:22:04.857Z,80.32
2023-02-24T07:24:40.653Z,80.42
2023-02-24T07:27:12.630Z,80.73
2023-02-24T07:29:40.511Z,80.95
2023-02-24T07:32:09.454Z,81.86
2023-02-24T07:34:41.007Z,83.34
2023-02-24T07:37:10.154Z,82.91
2023-02-24T07:39:39.494Z,82.25
2023-02-24T07:42:09.684Z,81.82
2023-02-24T07:44:46.652Z,81.26
2023-02-24T07:47:15.902Z,80.77
2023-02-24T07:49:45.252Z,80.63
2023-02-24T07:52:13.408Z,80.28
2023-02-24T07:54:41.249Z,79.79
2023-02-24T07:57:13.982Z,79.52
2023-02-24T07:59:46.772Z,79.44
2023-02-24T08:02:15.859Z,79.60
2023-02-24T08:04:50.111Z,79.85
2023-02-24T08:07:24.767Z,79.81
2023-02-24T08:10:12.121Z,79.73
2023-02-24T08:12:44.544Z,79.65
2023-02-24T08:15:23.747Z,79.76
2023-02-24T08:17:59.629Z,79.57
2023-02-24T08:20:36.005Z,79.38
2023-02-24T08:23:06.496Z,79.31
2023-02-24T08:25:37.197Z,79.24
2023-02-24T08:28:11.447Z,79.16
2023-02-24T08:30:47.108Z,79.27
2023-02-24T08:33:22.040Z,79.16
2023-02-24T08:36:01.003Z,79.10
2023-02-24T08:38:42.058Z,78.96
2023-02-24T08:41:18.251Z,79.19
2023-02-24T08:43:48.398Z,79.17
2023-02-24T08:46:26.589Z,79.15
2023-02-24T08:49:00.569Z,79.08
2023-02-24T08:51:34.581Z,79.22
2023-02-24T08:54:11.398Z,79.22
2023-02-24T08:56:43.546Z,79.21
2023-02-24T08:59:29.366Z,79.03
2023-02-24T09:02:18.403Z,78.92
2023-02-24T09:04:59.004Z,78.95
2023-02-24T09:07:35.529Z,78.95
2023-02-24T09:10:17.761Z,79.02
2023-02-24T09:12:47.010Z,78.92
2023-02-24T09:15:15.743Z,78.89
2023-02-24T09:17:45.392Z,78.85
2023-02-24T09:20:27.128Z,78.89
2023-02-24T09:23:07.772Z,78.64
2023-02-24T09:25:41.742Z,78.57
2023-02-24T09:28:24.624Z,78.69
2023-02-24T09:30:58.487Z,78.65
2023-02-24T09:33:28.075Z,78.34
2023-02-24T09:36:10.326Z,78.20
2023-02-24T09:39:09.809Z,78.21
2023-02-24T09:42:07.984Z,78.18
2023-02-24T09:44:42.075Z,78.06
2023-02-24T09:47:31.008Z,77.97
2023-02-24T09:50:05.978Z,77.85
2023-02-24T09:52:43.166Z,77.88
2023-02-24T09:55:27.665Z,77.81
2023-02-24T09:58:26.971Z,77.93
2023-02-24T10:01:21.278Z,77.97
2023-02-24T10:04:18.548Z,77.92
2023-02-24T10:06:49.150Z,77.96
2023-02-24T10:09:24.703Z,77.95
2023-02-24T10:12:04.061Z,77.92
2023-02-24T10:14:53.019Z,77.64
2023-02-24T10:17:24.259Z,77.39
2023-02-24T10:20:00.091Z,77.33
2023-02-24T10:22:50.789Z,77.55
2023-02-24T10:25:37.498Z,76.85
2023-02-24T10:28:43.950Z,76.65
2023-02-24T10:31:25.993Z,76.39
2023-02-24T10:34:06.118Z,76.58
2023-02-24T10:36:39.312Z,76.92
2023-02-24T10:39:17.064Z,76.48
2023-02-24T10:41:50.168Z,76.74
2023-02-24T10:44:25.583Z,76.68
2023-02-24T10:47:12.482Z,76.22
2023-02-24T10:49:57.146Z,76.16
2023-02-24T10:53:06.725Z,76.28
2023-02-24T10:55:45.353Z,76.37
2023-02-24T10:58:28.522Z,76.72
2023-02-24T11:01:11.959Z,76.62
2023-02-24T11:03:48.172Z,76.52
2023-02-24T11:06:41.310Z,76.44
2023-02-24T11:09:30.089Z,76.35
2023-02-24T11:12:38.454Z,76.32
2023-02-24T11:15:37.478Z,76.42
2023-02-24T11:18:07.011Z,76.16
2023-02-24T11:20:49.497Z,75.58
2023-02-24T11:23:23.643Z,75.20
2023-02-24T11:26:04.716Z,75.24
2023-02-24T11:28:48.907Z,75.21
2023-02-24T11:31:28.770Z,75.08
2023-02-24T11:34:07.607Z,74.98
2023-02-24T11:36:58.096Z,74.82
2023-02-24T11:39:53.081Z,74.79
2023-02-24T11:42:46.118Z,74.87
2023-02-24T11:45:29.979Z,74.50
2023-02-24T11:48:03.073Z,74.44
2023-02-24T11:50:39.837Z,74.36
2023-02-24T11:53:35.493Z,74.07
2023-02-24T11:56:11.155Z,74.04
2023-02-24T11:59:21.310Z,73.58
2023-02-24T12:02:10.605Z,73.34
2023-02-24T12:04:52.549Z,73.19
2023-02-24T12:07:39.023Z,72.91
2023-02-24T12:10:17.774Z,72.93
2023-02-24T12:13:16.202Z,72.56
2023-02-24T12:15:50.630Z,72.52
2023-02-24T12:18:39.679Z,71.96
2023-02-24T12:21:21.598Z,72.18
2023-02-24T12:23:53.619Z,71.96
2023-02-24T12:26:24.302Z,71.83
2023-02-24T12:29:27.881Z,72.28
2023-02-24T12:32:01.755Z,72.17
2023-02-24T12:34:43.501Z,71.86
2023-02-24T12:37:40.203Z,72.32
2023-02-24T12:40:14.230Z,72.52
2023-02-24T12:43:03.642Z,72.16
2023-02-24T12:45:47.797Z,71.04
2023-02-24T12:48:40.711Z,71.30
2023-02-24T12:51:28.554Z,71.29
2023-02-24T12:54:15.529Z,71.28
2023-02-24T12:57:02.720Z,71.54
2023-02-24T12:59:38.086Z,72.00
2023-02-24T13:02:14.997Z,72.19
2023-02-24T13:05:10.139Z,72.13
2023-02-24T13:07:48.335Z,71.68
2023-02-24T13:10:28.648Z,71.56
2023-02-24T13:13:16.460Z,71.39
2023-02-24T13:15:56.309Z,71.66
2023-02-24T13:18:36.579Z,72.17
2023-02-24T13:21:23.423Z,71.95
2023-02-24T13:24:01.083Z,71.56
2023-02-24T13:26:32.143Z,71.42
2023-02-24T13:29:11.479Z,71.11
2023-02-24T13:31:50.881Z,71.02
2023-02-24T13:34:21.905Z,70.94
2023-02-24T13:36:50.327Z,71.00
2023-02-24T13:39:24.277Z,70.97
2023-02-24T13:42:04.274Z,70.98
2023-02-24T13:44:32.774Z,70.78
2023-02-24T13:47:15.803Z,70.73
2023-02-24T13:49:54.389Z,70.68
2023-02-24T13:53:00.751Z,70.43
2023-02-24T13:55:39.698Z,70.39
2023-02-24T13:58:19.203Z,70.12
2023-02-24T14:00:59.898Z,69.79
2023-02-24T14:03:29.213Z,69.75
2023-02-24T14:05:59.301Z,69.80
2023-02-24T14:08:36.572Z,69.70
2023-02-24T14:11:06.746Z,69.63
2023-02-24T14:13:36.684Z,69.73
2023-02-24T14:16:11.830Z,69.83
2023-02-24T14:18:41.022Z,69.80
2023-02-24T14:21:21.462Z,69.79
2023-02-24T14:24:00.562Z,69.83
2023-02-24T14:26:33.619Z,69.83
2023-02-24T14:29:02.134Z,69.88
2023-02-24T14:31:30.443Z,69.85
2023-02-24T14:34:03.452Z,69.77
2023-02-24T14:36:35.790Z,69.71
2023-02-24T14:39:16.868Z,69.53
2023-02-24T14:41:46.092Z,69.52
2023-02-24T14:44:27.201Z,69.54
2023-02-24T14:46:57.444Z,69.75
2023-02-24T14:49:30.845Z,69.53
2023-02-24T14:52:05.543Z,69.42
2023-02-24T14:54:36.398Z,69.33
2023-02-24T14:57:04.955Z,69.29
2023-02-24T14:59:40.091Z,69.25
2023-02-24T15:02:15.310Z,69.34
2023-02-24T15:04:44.602Z,69.09
2023-02-24T15:07:30.907Z,69.02
2023-02-24T15:10:00.128Z,68.86
2023-02-24T15:12:46.840Z,68.45
2023-02-24T15:15:21.994Z,68.75
2023-02-24T15:17:55.574Z,69.01
2023-02-24T15:20:31.155Z,69.23
2023-02-24T15:22:59.526Z,69.19
2023-02-24T15:25:43.448Z,69.11
2023-02-24T15:28:31.477Z,69.29
2023-02-24T15:31:19.839Z,69.56
2023-02-24T15:34:00.327Z,69.67
2023-02-24T15:36:32.751Z,69.71
2023-02-24T15:39:11.826Z,69.53
2023-02-24T15:41:40.799Z,69.59
2023-02-24T15:44:25.184Z,69.45
2023-02-24T15:46:53.518Z,69.64
2023-02-24T15:49:21.475Z,69.49
2023-02-24T15:51:52.393Z,69.24
2023-02-24T15:54:25.116Z,69.36
2023-02-24T15:56:53.030Z,69.79
2023-02-24T15:59:23.432Z,69.88
2023-02-24T16:01:54.161Z,69.94
2023-02-24T16:04:23.221Z,70.21
2023-02-24T16:06:54.689Z,70.30
2023-02-24T16:09:39.912Z,70.44
2023-02-24T16:12:14.970Z,70.56
2023-02-24T16:14:43.905Z,70.66
2023-02-24T16:17:28.128Z,71.25
2023-02-24T16:19:56.928Z,71.40
2023-02-24T16:22:24.909Z,71.57
2023-02-24T16:24:53.166Z,71.71
2023-02-24T16:27:23.356Z,71.87
2023-02-24T16:29:51.244Z,72.00
2023-02-24T16:32:22.158Z,72.14
2023-02-24T16:34:50.154Z,72.32
2023-02-24T16:37:26.352Z,72.46
2023-02-24T16:39:54.836Z,72.56
2023-02-24T16:42:23.012Z,72.81
2023-02-24T16:44:51.149Z,72.76
2023-02-24T16:47:22.898Z,72.87
2023-02-24T16:49:55.336Z,72.90
2023-02-24T16:52:24.802Z,72.98
2023-02-24T16:54:52.700Z,73.07
2023-02-24T16:57:25.639Z,73.10
2023-02-24T16:59:53.717Z,72.96
2023-02-24T17:02:26.070Z,73.09
2023-02-24T17:04:54.204Z,73.16
2023-02-24T17:07:22.082Z,73.14
2023-02-24T17:09:50.494Z,73.27
2023-02-24T17:12:21.912Z,73.29
2023-02-24T17:14:49.982Z,73.37
2023-02-24T17:17:17.917Z,73.39
2023-02-24T17:19:45.742Z,73.39
2023-02-24T17:22:13.572Z,73.38
2023-02-24T17:24:41.412Z,73.38
2023-02-24T17:27:11.062Z,73.51
2023-02-24T17:29:38.920Z,73.59
2023-02-24T17:32:06.917Z,73.59
2023-02-24T17:34:34.844Z,73.55
2023-02-24T17:37:03.688Z,73.59
2023-02-24T17:39:32.671Z,73.61
2023-02-24T17:42:00.888Z,73.69
2023-02-24T17:44:28.840Z,73.69
2023-02-24T17:46:56.741Z,73.54
2023-02-24T17:49:24.860Z,73.54
2023-02-24T17:51:52.859Z,73.56
2023-02-24T17:54:20.727Z,73.66
2023-02-24T17:56:48.642Z,73.57
2023-02-24T17:59:16.604Z,73.59
2023-02-24T18:01:44.431Z,73.71
2023-02-24T18:04:14.742Z,73.73
2023-02-24T18:06:43.368Z,73.67
2023-02-24T18:09:11.856Z,73.85
2023-02-24T18:11:39.791Z,73.83
2023-02-24T18:14:07.717Z,74.06
2023-02-24T18:16:35.686Z,74.16
2023-02-24T18:19:04.266Z,74.19
2023-02-24T18:21:32.319Z,74.32
2023-02-24T18:24:00.156Z,74.37
2023-02-24T18:26:28.617Z,74.47
2023-02-24T18:28:58.297Z,74.41
2023-02-24T18:31:28.066Z,74.63
2023-02-24T18:33:57.152Z,74.60
2023-02-24T18:36:26.029Z,74.50
2023-02-24T18:38:54.041Z,74.81
2023-02-24T18:41:23.611Z,74.94
2023-02-24T18:43:54.240Z,74.96
2023-02-24T18:46:23.604Z,74.86
2023-02-24T18:48:51.937Z,74.52
2023-02-24T18:51:22.289Z,74.51
2023-02-24T18:53:52.783Z,74.73
2023-02-24T18:56:24.550Z,74.77
2023-02-24T18:58:56.214Z,74.67
2023-02-24T19:01:27.153Z,74.53
2023-02-24T19:03:56.322Z,74.52
2023-02-24T19:06:26.979Z,74.71
2023-02-24T19:08:58.873Z,74.79
2023-02-24T19:11:27.155Z,74.89
2023-02-24T19:13:55.751Z,74.85
2023-02-24T19:16:23.951Z,74.82
2023-02-24T19:18:53.768Z,74.75
2023-02-24T19:21:21.755Z,74.85
2023-02-24T19:23:50.467Z,74.81
2023-02-24T19:26:21.287Z,74.74
2023-02-24T19:28:49.760Z,74.82
2023-02-24T19:31:20.819Z,74.74
2023-02-24T19:34:08.625Z,74.84
2023-02-24T19:36:37.736Z,74.90
2023-02-24T19:39:09.645Z,74.93
2023-02-24T19:41:38.316Z,75.00
2023-02-24T19:44:06.142Z,75.02
2023-02-24T19:46:34.374Z,75.10
2023-02-24T19:49:03.115Z,75.11
2023-02-24T19:51:31.343Z,75.03
2023-02-24T19:54:03.174Z,75.22
2023-02-24T19:56:33.932Z,75.20
2023-02-24T19:59:03.780Z,75.23
2023-02-24T20:01:32.262Z,75.34
2023-02-24T20:04:02.290Z,75.26
2023-02-24T20:06:33.210Z,75.31
2023-02-24T20:09:02.430Z,75.38
2023-02-24T20:11:31.021Z,75.50
2023-02-24T20:13:58.936Z,75.53
2023-02-24T20:16:31.983Z,75.29
2023-02-24T20:19:00.678Z,75.33
2023-02-24T20:21:29.207Z,75.45
2023-02-24T20:24:01.409Z,75.51
2023-02-24T20:26:30.061Z,75.56
2023-02-24T20:28:59.993Z,75.57
2023-02-24T20:31:28.641Z,75.65
2023-02-24T20:33:56.651Z,75.84
2023-02-24T20:36:26.948Z,75.82
2023-02-24T20:38:57.775Z,75.89
2023-02-24T20:41:27.721Z,75.95
2023-02-24T20:43:55.932Z,75.95
2023-02-24T20:46:29.653Z,75.89
2023-02-24T20:48:59.335Z,76.03
2023-02-24T20:51:29.481Z,75.96
2023-02-24T20:53:58.785Z,75.81
2023-02-24T20:56:29.667Z,75.63
2023-02-24T20:59:13.796Z,75.51
2023-02-24T21:01:42.316Z,75.51
2023-02-24T21:04:12.650Z,75.56
2023-02-24T21:06:41.023Z,75.57
2023-02-24T21:09:11.884Z,75.34
2023-02-24T21:11:39.992Z,75.26
2023-02-24T21:14:08.070Z,75.27
2023-02-24T21:16:35.933Z,75.30
2023-02-24T21:19:03.781Z,75.14
2023-02-24T21:21:31.614Z,75.06
2023-02-24T21:23:59.413Z,75.26
2023-02-24T21:26:29.184Z,75.40
2023-02-24T21:28:58.610Z,75.38
2023-02-24T21:31:27.195Z,75.48
2023-02-24T21:33:55.948Z,75.51
2023-02-24T21:36:26.054Z,75.39
2023-02-24T21:38:55.369Z,75.49
2023-02-24T21:41:23.924Z,75.49
2023-02-24T21:43:57.088Z,75.46
2023-02-24T21:46:28.136Z,75.30
2023-02-24T21:48:59.548Z,75.22
2023-02-24T21:51:28.375Z,75.17
2023-02-24T21:53:57.305Z,75.18
2023-02-24T21:56:27.924Z,75.20
2023-02-24T21:59:01.159Z,75.23
2023-02-24T22:01:34.913Z,75.15
2023-02-24T22:04:05.644Z,75.21
2023-02-24T22:06:35.863Z,74.88
2023-02-24T22:09:06.199Z,74.83
2023-02-24T22:11:36.606Z,74.86
2023-02-24T22:14:08.334Z,74.72
2023-02-24T22:16:36.804Z,74.83
2023-02-24T22:19:04.935Z,74.95
2023-02-24T22:21:33.294Z,74.77
2023-02-24T22:24:02.999Z,74.69
2023-02-24T22:26:32.179Z,74.77
2023-02-24T22:29:01.051Z,74.73
2023-02-24T22:31:32.368Z,74.65
2023-02-24T22:34:01.076Z,74.58
2023-02-24T22:36:33.455Z,74.56
2023-02-24T22:39:02.234Z,74.60
2023-02-24T22:41:32.981Z,74.62
2023-02-24T22:44:02.905Z,74.59
2023-02-24T22:46:33.960Z,74.49
2023-02-24T22:49:02.868Z,74.62
2023-02-24T22:51:31.138Z,74.68
2023-02-24T22:53:58.966Z,74.71
2023-02-24T22:56:29.041Z,74.70
2023-02-24T22:58:58.214Z,74.65
2023-02-24T23:01:31.884Z,74.58
2023-02-24T23:04:01.196Z,74.67
2023-02-24T23:06:30.640Z,74.65
2023-02-24T23:09:00.495Z,74.74
2023-02-24T23:11:31.041Z,74.76
2023-02-24T23:14:02.144Z,74.81
2023-02-24T23:16:31.967Z,74.81
2023-02-24T23:19:05.996Z,74.84
2023-02-24T23:21:39.868Z,74.89
2023-02-24T23:24:10.955Z,75.18
2023-02-24T23:26:41.847Z,75.09
2023-02-24T23:29:11.881Z,75.08
2023-02-24T23:31:41.094Z,75.07
2023-02-24T23:34:10.053Z,75.14
2023-02-24T23:36:40.763Z,75.08
2023-02-24T23:39:09.310Z,75.21
2023-02-24T23:41:38.487Z,75.24
2023-02-24T23:44:06.381Z,75.28
2023-02-24T23:46:35.864Z,75.15
2023-02-24T23:49:05.184Z,75.27
2023-02-24T23:51:46.916Z,75.24
2023-02-24T23:54:16.964Z,75.20
2023-02-24T23:56:44.852Z,75.20
2023-02-24T23:59:12.698Z,75.28
